Time;durP1;ratioP1;P1;durP2;ratioP2;P2;SDS_P1;SDS_P2;PMS_P1;PMS_P2;Temp;Humidity;BMP_temperature;BMP_pressure;BME280_temperature;BME280_humidity;BME280_pressure;Samples;Min_cycle;Max_cycle;Signal;HPM_P1;HPM_P2
2021/06/21 00:01:54;;;;;;;6.18;3.60;;;13.80;77.20;;;;;;5020568;27;95933;-48
2021/06/21 00:04:24;;;;;;;7.30;4.13;;;13.90;77.30;;;;;;5022656;27;100850;-47
2021/06/21 00:06:55;;;;;;;4.53;3.85;;;13.90;77.40;;;;;;5023373;28;95425;-46
2021/06/21 00:09:27;;;;;;;4.70;3.67;;;14.00;77.40;;;;;;5020105;27;96762;-47
2021/06/21 00:11:57;;;;;;;;;;;14.10;77.70;;;;;;5004491;28;96819;-47
2021/06/21 00:14:29;;;;;;;4.15;3.13;;;14.10;77.60;;;;;;5020169;27;96155;-45
2021/06/21 00:17:00;;;;;;;4.45;3.30;;;14.10;77.60;;;;;;5015090;27;95876;-47
2021/06/21 00:19:32;;;;;;;5.25;3.65;;;14.20;77.50;;;;;;4999252;28;98331;-47
2021/06/21 00:22:05;;;;;;;4.10;3.40;;;14.30;77.60;;;;;;5002069;28;96144;-46
2021/06/21 00:24:36;;;;;;;4.85;3.88;;;14.30;77.50;;;;;;5022159;27;96024;-46
2021/06/21 00:27:07;;;;;;;4.10;3.60;;;14.40;77.60;;;;;;5024049;28;95770;-47
2021/06/21 00:29:38;;;;;;;5.07;4.03;;;14.40;77.10;;;;;;5018512;27;96961;-60
2021/06/21 00:32:09;;;;;;;4.72;3.42;;;14.50;76.30;;;;;;5015108;27;95819;-46
2021/06/21 00:34:40;;;;;;;5.13;4.03;;;14.50;76.20;;;;;;5017441;27;97829;-49
2021/06/21 00:37:11;;;;;;;5.60;3.90;;;14.50;76.10;;;;;;5022478;28;96902;-48
2021/06/21 00:39:42;;;;;;;;;;;14.50;75.80;;;;;;5019497;27;96321;-48
2021/06/21 00:42:13;;;;;;;4.53;3.38;;;14.50;75.80;;;;;;5025175;27;96075;-47
2021/06/21 00:44:44;;;;;;;4.68;3.78;;;14.50;75.70;;;;;;5011883;27;97579;-59
2021/06/21 00:47:16;;;;;;;4.80;3.20;;;14.60;75.60;;;;;;5016751;27;95948;-46
2021/06/21 00:49:47;;;;;;;5.93;3.35;;;14.60;76.10;;;;;;5017436;27;102425;-48
2021/06/21 00:52:21;;;;;;;5.47;4.20;;;14.60;75.20;;;;;;5026721;27;95469;-46
2021/06/21 00:55:00;;;;;;;3.65;2.92;;;14.60;75.00;;;;;;5024518;27;95668;-47
2021/06/21 00:57:32;;;;;;;4.70;3.45;;;14.70;75.20;;;;;;5021928;28;95781;-49
2021/06/21 01:00:11;;;;;;;4.63;3.88;;;14.70;74.80;;;;;;5017014;27;95836;-48
2021/06/21 01:02:42;;;;;;;4.18;3.67;;;14.70;74.60;;;;;;5019420;27;96010;-48
2021/06/21 01:05:19;;;;;;;3.75;3.17;;;14.70;74.40;;;;;;5022157;27;95248;-47
2021/06/21 01:07:53;;;;;;;4.18;3.20;;;14.80;74.40;;;;;;5007176;28;96084;-46
2021/06/21 01:10:30;;;;;;;3.75;2.95;;;14.80;74.60;;;;;;5021378;27;99338;-48
2021/06/21 01:13:20;;;;;;;3.38;2.58;;;14.80;74.70;;;;;;5020828;28;95760;-46
2021/06/21 01:16:09;;;;;;;3.17;2.78;;;14.90;74.90;;;;;;5016749;27;101800;-43
2021/06/21 01:18:52;;;;;;;3.80;3.03;;;15.00;75.00;;;;;;5024514;27;95771;-44
2021/06/21 01:21:25;;;;;;;;;;;15.00;75.30;;;;;;5019530;27;96159;-44
2021/06/21 01:24:12;;;;;;;3.22;2.50;;;15.10;75.60;;;;;;5024715;27;96069;-44
2021/06/21 01:26:50;;;;;;;2.78;2.45;;;15.20;75.80;;;;;;5021204;27;95932;-43
2021/06/21 01:29:59;;;;;;;3.83;2.58;;;15.20;76.20;;;;;;5020492;27;96004;-49
2021/06/21 01:32:41;;;;;;;3.00;2.47;;;15.30;76.50;;;;;;4994685;27;96695;-44
2021/06/21 01:35:44;;;;;;;2.53;2.33;;;15.40;76.70;;;;;;5021136;27;96282;-46
2021/06/21 01:38:20;;;;;;;2.47;2.28;;;15.50;76.20;;;;;;5006479;27;95870;-45
2021/06/21 01:40:54;;;;;;;3.55;2.30;;;15.60;75.90;;;;;;5023182;28;95924;-45
2021/06/21 01:43:32;;;;;;;4.18;2.40;;;15.70;76.50;;;;;;5013723;27;95925;-45
2021/06/21 01:46:11;;;;;;;3.03;2.25;;;15.80;76.60;;;;;;4996682;28;96186;-48
2021/06/21 01:49:00;;;;;;;2.70;2.05;;;16.00;76.50;;;;;;5014157;27;98144;-48
2021/06/21 01:51:33;;;;;;;2.30;2.10;;;16.10;76.30;;;;;;5025229;27;95791;-46
2021/06/21 01:54:06;;;;;;;2.42;2.22;;;16.30;75.90;;;;;;5018942;27;96318;-46
2021/06/21 01:56:46;;;;;;;2.25;1.90;;;16.40;75.70;;;;;;5018944;28;96142;-46
2021/06/21 01:59:18;;;;;;;3.17;1.85;;;16.60;75.50;;;;;;5021158;27;95760;-47
2021/06/21 02:01:50;;;;;;;1.83;1.67;;;16.70;75.20;;;;;;5020983;27;95735;-47
2021/06/21 02:04:21;;;;;;;2.05;1.85;;;16.90;74.80;;;;;;5022423;27;95912;-49
2021/06/21 02:06:55;;;;;;;2.00;1.27;;;17.00;74.50;;;;;;5023364;28;96173;-48
2021/06/21 02:09:27;;;;;;;1.85;1.63;;;17.10;74.30;;;;;;5019314;28;96090;-48
2021/06/21 02:11:59;;;;;;;8.38;1.88;;;17.20;73.80;;;;;;5023681;28;95831;-48
2021/06/21 02:14:33;;;;;;;2.42;1.90;;;17.30;71.00;;;;;;5023213;27;97213;-50
2021/06/21 02:17:05;;;;;;;3.42;2.17;;;17.20;69.60;;;;;;5000248;28;96052;-51
2021/06/21 02:19:37;;;;;;;18.60;2.15;;;17.10;69.90;;;;;;5022969;27;96040;-49
2021/06/21 02:22:08;;;;;;;6.40;2.13;;;17.20;70.50;;;;;;5024324;27;95351;-48
2021/06/21 02:24:39;;;;;;;3.20;2.13;;;17.20;70.10;;;;;;5021275;27;96617;-48
2021/06/21 02:27:11;;;;;;;2.43;1.90;;;17.30;70.10;;;;;;5024151;28;95605;-47
2021/06/21 02:29:44;;;;;;;3.47;2.10;;;17.40;70.00;;;;;;5021002;27;95729;-48
2021/06/21 02:32:16;;;;;;;4.20;2.00;;;17.50;69.70;;;;;;5019026;28;98151;-50
2021/06/21 02:34:46;;;;;;;3.70;2.00;;;17.50;69.20;;;;;;5020826;27;96565;-50
2021/06/21 02:37:17;;;;;;;8.75;2.33;;;17.50;69.10;;;;;;5023891;27;96203;-50
2021/06/21 02:39:48;;;;;;;2.25;1.60;;;17.50;69.60;;;;;;5023222;27;97127;-50
2021/06/21 02:42:19;;;;;;;5.03;1.40;;;17.70;69.20;;;;;;5025338;27;97370;-50
2021/06/21 02:44:50;;;;;;;3.75;1.58;;;17.90;69.10;;;;;;5007925;27;96895;-48
2021/06/21 02:47:21;;;;;;;4.93;1.73;;;18.00;69.20;;;;;;5014435;27;99424;-48
2021/06/21 02:49:52;;;;;;;;;;;18.20;69.30;;;;;;5002584;28;95671;-50
2021/06/21 02:52:41;;;;;;;3.45;1.67;;;18.40;69.20;;;;;;5026774;28;96320;-49
2021/06/21 02:55:23;;;;;;;1.83;1.60;;;18.50;69.20;;;;;;5021750;27;100695;-46
2021/06/21 02:58:09;;;;;;;2.35;1.42;;;18.60;69.20;;;;;;5025130;28;95936;-46
2021/06/21 03:00:41;;;;;;;2.28;1.33;;;18.80;69.00;;;;;;5014853;27;95786;-49
2021/06/21 03:03:12;;;;;;;2.70;1.45;;;18.90;68.90;;;;;;5023614;27;96162;-48
2021/06/21 03:05:48;;;;;;;2.95;1.98;;;19.10;68.70;;;;;;5020405;27;95843;-49
2021/06/21 03:08:20;;;;;;;2.28;1.20;;;19.20;68.50;;;;;;5024765;28;95834;-47
2021/06/21 03:10:51;;;;;;;5.15;1.60;;;19.40;68.30;;;;;;5023222;27;95882;-47
2021/06/21 03:13:23;;;;;;;5.10;1.73;;;19.50;67.50;;;;;;5025680;27;95934;-46
2021/06/21 03:15:57;;;;;;;4.78;1.48;;;19.20;66.20;;;;;;5015734;27;96463;-46
2021/06/21 03:18:29;;;;;;;4.57;1.67;;;19.40;66.80;;;;;;5020964;28;95798;-46
2021/06/21 03:21:00;;;;;;;;;;;19.50;67.00;;;;;;5021436;27;96029;-47
2021/06/21 03:23:33;;;;;;;3.42;1.30;;;19.70;67.00;;;;;;5023866;27;96098;-47
2021/06/21 03:26:05;;;;;;;1.52;1.33;;;19.90;67.00;;;;;;5013761;27;98189;-48
2021/06/21 03:28:37;;;;;;;2.30;1.73;;;19.90;67.00;;;;;;5017812;28;95730;-47
2021/06/21 03:31:09;;;;;;;1.55;1.42;;;20.00;67.00;;;;;;5014201;27;96697;-50
2021/06/21 03:33:39;;;;;;;3.25;1.88;;;20.10;67.10;;;;;;5025085;27;95642;-48
2021/06/21 03:36:09;;;;;;;4.75;1.60;;;19.80;63.40;;;;;;5020971;27;96388;-48
2021/06/21 03:38:39;;;;;;;2.85;1.70;;;19.60;64.30;;;;;;5027663;28;96441;-46
2021/06/21 03:41:10;;;;;;;2.80;1.65;;;19.40;64.90;;;;;;5029447;27;97029;-47
2021/06/21 03:43:41;;;;;;;2.72;1.35;;;19.30;65.30;;;;;;5023797;27;95754;-48
2021/06/21 03:46:13;;;;;;;1.40;1.25;;;19.30;65.80;;;;;;5020845;27;95743;-47
2021/06/21 03:48:44;;;;;;;2.90;1.77;;;19.50;65.80;;;;;;5023411;27;95812;-46
2021/06/21 03:51:16;;;;;;;2.55;1.40;;;19.80;65.60;;;;;;5026934;27;95771;-46
2021/06/21 03:53:48;;;;;;;2.15;1.42;;;20.10;65.60;;;;;;5024515;27;96216;-48
2021/06/21 03:56:18;;;;;;;2.13;1.10;;;20.20;65.40;;;;;;5024446;28;95854;-46
2021/06/21 03:58:50;;;;;;;1.40;1.30;;;20.30;65.50;;;;;;5024399;27;95754;-44
2021/06/21 04:01:20;;;;;;;1.48;1.38;;;20.40;65.60;;;;;;5022148;27;96058;-47
2021/06/21 04:03:55;;;;;;;1.65;1.17;;;20.50;65.50;;;;;;5028587;27;95243;-44
2021/06/21 04:06:25;;;;;;;1.50;1.40;;;20.70;65.70;;;;;;5026855;27;96380;-48
2021/06/21 04:08:58;;;;;;;3.95;1.40;;;20.50;63.00;;;;;;5022076;27;96478;-47
2021/06/21 04:11:29;;;;;;;3.30;1.40;;;20.40;65.10;;;;;;5023232;27;96004;-49
2021/06/21 04:14:00;;;;;;;4.35;1.92;;;20.20;65.30;;;;;;5017806;27;95915;-50
2021/06/21 04:16:30;;;;;;;;;;;19.90;66.80;;;;;;5016786;27;95996;-50
2021/06/21 04:19:02;;;;;;;3.40;1.80;;;19.80;67.70;;;;;;5022117;27;95688;-48
2021/06/21 04:21:34;;;;;;;3.10;1.60;;;19.70;68.50;;;;;;5027113;27;95786;-48
2021/06/21 04:24:05;;;;;;;;;;;19.50;69.30;;;;;;5016599;27;95857;-52
2021/06/21 04:26:36;;;;;;;2.83;1.80;;;19.50;69.90;;;;;;5018160;28;97430;-49
2021/06/21 04:29:07;;;;;;;1.58;1.48;;;19.40;70.50;;;;;;5016727;27;95911;-49
2021/06/21 04:31:51;;;;;;;3.05;1.45;;;19.30;70.40;;;;;;5018031;27;95705;-57
2021/06/21 04:34:22;;;;;;;2.25;1.67;;;19.30;69.60;;;;;;5021502;27;95416;-45
2021/06/21 04:36:52;;;;;;;;;;;19.40;69.40;;;;;;5023804;28;99228;-48
2021/06/21 04:39:24;;;;;;;3.20;1.40;;;19.80;68.60;;;;;;5021695;27;96021;-46
2021/06/21 04:41:55;;;;;;;1.80;1.23;;;20.10;68.00;;;;;;5022184;27;96788;-46
2021/06/21 04:44:25;;;;;;;2.90;1.33;;;20.30;67.60;;;;;;5009248;27;97878;-45
2021/06/21 04:46:57;;;;;;;2.88;1.38;;;20.40;67.50;;;;;;5015710;27;95889;-43
2021/06/21 04:49:28;;;;;;;2.17;1.40;;;20.50;67.30;;;;;;5016429;27;96000;-46
2021/06/21 04:51:59;;;;;;;;;;;20.60;67.20;;;;;;5019553;28;95922;-45
2021/06/21 04:54:29;;;;;;;1.77;1.50;;;20.70;67.30;;;;;;5024220;27;98711;-48
2021/06/21 04:56:59;;;;;;;5.70;5.25;;;20.70;66.90;;;;;;5021926;28;96194;-51
2021/06/21 04:59:30;;;;;;;4.53;4.13;;;20.40;65.90;;;;;;5019099;27;95962;-59
2021/06/21 05:02:00;;;;;;;3.55;2.88;;;20.20;66.30;;;;;;5018299;28;97894;-58
2021/06/21 05:04:30;;;;;;;2.60;2.40;;;20.00;66.60;;;;;;5020732;27;95693;-47
2021/06/21 05:07:00;;;;;;;2.38;2.17;;;19.90;66.90;;;;;;5019890;28;96634;-46
2021/06/21 05:09:31;;;;;;;3.08;2.65;;;19.80;67.10;;;;;;5020055;28;96011;-56
2021/06/21 05:12:03;;;;;;;2.40;2.13;;;19.80;67.20;;;;;;5019222;27;95361;-47
2021/06/21 05:14:34;;;;;;;2.38;2.15;;;19.70;67.30;;;;;;5020669;27;95706;-47
2021/06/21 05:17:08;;;;;;;2.33;1.70;;;19.70;67.30;;;;;;5011773;27;96053;-46
2021/06/21 05:19:40;;;;;;;2.20;2.00;;;19.70;67.40;;;;;;5025313;27;97264;-56
2021/06/21 05:22:12;;;;;;;2.28;1.70;;;19.70;67.50;;;;;;5018019;27;95884;-45
2021/06/21 05:24:42;;;;;;;;;;;19.70;67.70;;;;;;5018680;27;96104;-59
2021/06/21 05:27:13;;;;;;;2.47;1.70;;;19.80;67.20;;;;;;5021074;27;95962;-47
2021/06/21 05:29:46;;;;;;;1.63;1.52;;;19.90;67.00;;;;;;5024879;27;95312;-48
2021/06/21 05:32:18;;;;;;;2.42;1.85;;;19.90;66.90;;;;;;5012748;27;95846;-47
2021/06/21 05:34:49;;;;;;;1.95;1.50;;;20.00;66.80;;;;;;5005049;27;95796;-46
2021/06/21 05:37:20;;;;;;;1.60;1.50;;;20.00;66.70;;;;;;5022279;27;96182;-46
2021/06/21 05:39:50;;;;;;;;;;;20.00;66.80;;;;;;5026335;27;96135;-45
2021/06/21 05:42:21;;;;;;;1.23;1.13;;;20.00;66.70;;;;;;5022101;27;95734;-46
2021/06/21 05:44:52;;;;;;;3.03;1.98;;;20.00;66.80;;;;;;5022462;27;95974;-47
2021/06/21 05:47:24;;;;;;;1.70;1.60;;;20.10;66.80;;;;;;4998379;27;100437;-46
2021/06/21 05:49:55;;;;;;;1.17;1.08;;;20.10;66.70;;;;;;5024435;27;95890;-47
2021/06/21 05:52:26;;;;;;;2.85;1.38;;;20.10;66.70;;;;;;5022707;27;99018;-49
2021/06/21 05:54:59;;;;;;;3.17;1.83;;;20.10;66.80;;;;;;5022728;27;95537;-45
2021/06/21 05:57:30;;;;;;;1.77;1.55;;;19.90;66.60;;;;;;5016196;27;96430;-48
2021/06/21 06:00:00;;;;;;;2.15;1.23;;;19.70;67.10;;;;;;5025419;27;95686;-50
2021/06/21 06:02:33;;;;;;;1.42;1.10;;;19.60;67.60;;;;;;5003484;27;96009;-49
2021/06/21 06:05:06;;;;;;;1.48;1.38;;;19.40;67.90;;;;;;5025580;27;95803;-53
2021/06/21 06:07:37;;;;;;;1.13;1.00;;;19.40;68.40;;;;;;5021739;27;95946;-53
2021/06/21 06:10:08;;;;;;;1.60;1.50;;;19.30;68.60;;;;;;5031124;27;95716;-51
2021/06/21 06:12:40;;;;;;;2.78;1.33;;;19.20;68.60;;;;;;5023031;27;96798;-52
2021/06/21 06:15:12;;;;;;;1.73;1.33;;;19.20;68.90;;;;;;5007544;27;95596;-52
2021/06/21 06:17:43;;;;;;;2.45;0.90;;;19.20;68.90;;;;;;5021669;27;96945;-55
2021/06/21 06:20:15;;;;;;;2.97;1.40;;;19.10;69.10;;;;;;5026460;27;95426;-55
2021/06/21 06:22:46;;;;;;;1.35;1.25;;;19.10;69.20;;;;;;5021731;27;102399;-56
2021/06/21 06:25:18;;;;;;;1.73;1.20;;;19.00;69.40;;;;;;5023168;27;99223;-52
2021/06/21 06:27:49;;;;;;;1.40;1.25;;;18.90;69.40;;;;;;5022498;27;97470;-55
2021/06/21 06:30:21;;;;;;;2.47;1.45;;;18.90;69.70;;;;;;5023847;27;95630;-51
2021/06/21 06:32:51;;;;;;;2.30;1.38;;;18.90;70.10;;;;;;5026193;27;95795;-49
2021/06/21 06:35:21;;;;;;;2.38;1.70;;;18.90;69.90;;;;;;5026931;27;95817;-51
2021/06/21 06:37:51;;;;;;;1.63;1.33;;;18.90;70.00;;;;;;5023312;28;96189;-53
2021/06/21 06:40:23;;;;;;;3.60;1.80;;;18.80;69.90;;;;;;5020449;27;96039;-53
2021/06/21 06:42:54;;;;;;;;;;;18.80;70.10;;;;;;5015435;27;96076;-53
2021/06/21 06:45:26;;;;;;;3.87;1.50;;;18.70;70.40;;;;;;5013541;27;95813;-55
2021/06/21 06:47:59;;;;;;;2.00;1.20;;;18.70;70.40;;;;;;5021646;27;102070;-52
2021/06/21 06:50:34;;;;;;;1.38;1.13;;;18.70;70.40;;;;;;5021528;27;95909;-51
2021/06/21 06:53:06;;;;;;;1.58;1.23;;;18.70;70.50;;;;;;5020040;27;95685;-54
2021/06/21 06:58:24;;;;;;;2.88;1.10;;;19.00;70.30;;;;;;5023056;28;96646;-49
2021/06/21 07:00:55;;;;;;;4.45;2.22;;;18.90;71.20;;;;;;5013206;27;96226;-50
2021/06/21 07:03:26;;;;;;;3.08;1.60;;;19.10;70.40;;;;;;5024762;27;95580;-49
2021/06/21 07:05:58;;;;;;;1.55;1.20;;;19.20;70.20;;;;;;5021976;27;95503;-45
2021/06/21 07:08:33;;;;;;;2.13;1.25;;;19.30;70.10;;;;;;5023662;28;96489;-50
2021/06/21 07:11:05;;;;;;;3.13;1.60;;;19.30;70.00;;;;;;5021564;27;96488;-50
2021/06/21 07:13:36;;;;;;;4.00;1.60;;;19.20;68.80;;;;;;5023434;27;95549;-48
2021/06/21 07:16:07;;;;;;;4.22;2.10;;;19.00;69.60;;;;;;5018041;27;96032;-49
2021/06/21 07:18:39;;;;;;;2.28;1.40;;;18.90;69.70;;;;;;5021613;28;95929;-50
2021/06/21 07:21:10;;;;;;;;;;;18.70;71.30;;;;;;5006088;28;97792;-51
2021/06/21 07:23:42;;;;;;;1.60;1.50;;;18.60;71.00;;;;;;5023543;27;96510;-50
2021/06/21 07:26:13;;;;;;;3.40;1.63;;;18.70;70.90;;;;;;5016983;27;96609;-55
2021/06/21 07:28:45;;;;;;;2.55;2.00;;;18.60;71.00;;;;;;5016532;28;95873;-55
2021/06/21 07:31:15;;;;;;;2.67;2.05;;;18.50;71.20;;;;;;5012684;27;97966;-47
2021/06/21 07:33:45;;;;;;;3.75;1.90;;;18.50;71.50;;;;;;5025818;27;96107;-50
2021/06/21 07:36:16;;;;;;;11.07;2.58;;;18.40;71.60;;;;;;5018347;27;96089;-54
2021/06/21 07:38:48;;;;;;;2.55;2.08;;;18.40;72.00;;;;;;5004667;28;96477;-50
2021/06/21 07:41:19;;;;;;;4.35;2.38;;;18.30;72.20;;;;;;5022333;27;103009;-56
2021/06/21 07:43:50;;;;;;;3.43;2.40;;;18.30;71.30;;;;;;5014625;27;95738;-51
2021/06/21 07:46:22;;;;;;;6.18;2.85;;;18.30;71.70;;;;;;5007399;27;95968;-55
2021/06/21 07:48:54;;;;;;;3.25;2.35;;;18.20;71.80;;;;;;5022859;27;96020;-51
2021/06/21 07:51:26;;;;;;;4.05;3.17;;;18.20;72.00;;;;;;5018569;27;95999;-54
2021/06/21 07:53:57;;;;;;;3.22;2.38;;;18.20;72.00;;;;;;5022705;28;96919;-50
2021/06/21 07:56:30;;;;;;;4.80;3.00;;;18.10;71.90;;;;;;5016255;27;95926;-50
2021/06/21 07:59:00;;;;;;;3.90;2.45;;;18.00;72.00;;;;;;5021489;27;97812;-51
2021/06/21 08:01:30;;;;;;;5.93;2.72;;;17.90;72.50;;;;;;4990752;27;96884;-49
2021/06/21 08:04:02;;;;;;;3.47;2.50;;;17.80;72.70;;;;;;5022839;27;95795;-54
2021/06/21 08:06:33;;;;;;;3.60;2.47;;;17.80;72.60;;;;;;5005019;28;95893;-50
2021/06/21 08:09:07;;;;;;;3.15;2.85;;;17.80;72.60;;;;;;5022388;27;96577;-49
2021/06/21 08:11:38;;;;;;;4.57;3.30;;;17.80;72.50;;;;;;5022336;28;95634;-50
2021/06/21 08:14:09;;;;;;;5.35;3.00;;;17.70;72.80;;;;;;5025999;27;95963;-50
2021/06/21 08:16:41;;;;;;;3.33;2.95;;;17.70;72.90;;;;;;5015141;28;97352;-50
2021/06/21 08:19:12;;;;;;;3.67;3.05;;;17.70;72.80;;;;;;5019238;27;96729;-51
2021/06/21 08:21:44;;;;;;;4.32;3.53;;;17.60;72.70;;;;;;5021309;27;95817;-49
2021/06/21 08:24:16;;;;;;;5.70;4.10;;;17.60;72.70;;;;;;5020113;27;95845;-50
2021/06/21 08:26:47;;;;;;;7.30;6.50;;;17.50;72.80;;;;;;5022127;28;95727;-50
2021/06/21 08:29:19;;;;;;;5.65;4.07;;;17.50;73.00;;;;;;5019305;27;96456;-51
2021/06/21 08:31:49;;;;;;;4.63;3.97;;;17.50;72.90;;;;;;5021341;27;95981;-48
2021/06/21 08:34:20;;;;;;;5.28;4.15;;;17.40;73.00;;;;;;5019268;27;96026;-51
2021/06/21 08:36:50;;;;;;;6.05;5.43;;;17.50;74.10;;;;;;5020477;28;95763;-48
2021/06/21 08:39:22;;;;;;;;;;;17.60;73.60;;;;;;5021681;27;96099;-52
2021/06/21 08:42:00;;;;;;;6.95;5.93;;;17.80;72.90;;;;;;5024328;27;96095;-50
2021/06/21 08:44:32;;;;;;;6.03;5.50;;;17.90;72.20;;;;;;5007516;27;95948;-50
2021/06/21 08:47:06;;;;;;;7.90;6.20;;;17.90;72.10;;;;;;5000655;28;96996;-50
2021/06/21 08:49:45;;;;;;;7.05;5.68;;;17.90;72.10;;;;;;5015157;27;95934;-49
2021/06/21 08:52:19;;;;;;;7.25;5.10;;;17.90;71.90;;;;;;5019871;28;95936;-50
2021/06/21 08:54:49;;;;;;;8.23;6.05;;;17.90;71.90;;;;;;5016445;27;96002;-48
2021/06/21 08:57:19;;;;;;;7.20;5.90;;;18.00;72.00;;;;;;5021245;28;95787;-50
2021/06/21 08:59:49;;;;;;;7.90;6.38;;;18.00;72.00;;;;;;5015317;27;96504;-50
2021/06/21 09:02:32;;;;;;;7.60;6.47;;;18.00;72.00;;;;;;5018369;27;95376;-48
2021/06/21 09:05:10;;;;;;;8.30;6.60;;;18.00;72.00;;;;;;5015370;27;95978;-49
2021/06/21 09:07:44;;;;;;;8.10;6.53;;;17.90;71.90;;;;;;5018587;28;96143;-48
2021/06/21 09:10:26;;;;;;;9.10;6.50;;;17.90;71.50;;;;;;5013325;27;96775;-50
2021/06/21 09:13:06;;;;;;;7.15;6.40;;;17.90;71.60;;;;;;5024472;27;96197;-48
2021/06/21 09:15:43;;;;;;;7.57;6.35;;;17.90;71.60;;;;;;5024756;27;96157;-49
2021/06/21 09:18:38;;;;;;;8.18;7.20;;;17.90;71.70;;;;;;5020829;28;95801;-47
2021/06/21 09:21:32;;;;;;;9.88;7.60;;;17.90;71.70;;;;;;5017878;27;96061;-47
2021/06/21 09:24:26;;;;;;;8.00;6.72;;;17.90;71.80;;;;;;5024993;27;97449;-47
2021/06/21 09:27:02;;;;;;;9.38;7.28;;;17.90;71.90;;;;;;5022304;27;96218;-47
2021/06/21 09:29:43;;;;;;;8.52;7.05;;;17.90;72.00;;;;;;5024674;28;95333;-47
2021/06/21 09:32:40;;;;;;;12.93;7.55;;;17.80;72.10;;;;;;5015997;28;97024;-46
2021/06/21 09:35:34;;;;;;;9.55;8.35;;;17.80;72.10;;;;;;5020785;27;103129;-47
2021/06/21 09:38:19;;;;;;;9.13;7.18;;;17.70;72.10;;;;;;5026161;28;97815;-48
2021/06/21 09:40:53;;;;;;;9.50;6.57;;;17.70;72.10;;;;;;5019041;27;99143;-48
2021/06/21 09:43:28;;;;;;;9.15;7.57;;;17.70;72.20;;;;;;5019146;27;95932;-48
2021/06/21 09:46:12;;;;;;;10.93;8.20;;;17.60;72.20;;;;;;5007373;27;96169;-47
2021/06/21 09:48:49;;;;;;;7.85;6.75;;;17.60;72.30;;;;;;5020629;27;95709;-48
2021/06/21 09:51:22;;;;;;;9.20;7.55;;;17.50;72.30;;;;;;5021599;27;95742;-50
2021/06/21 09:53:56;;;;;;;9.18;7.75;;;17.50;72.40;;;;;;5012024;28;95847;-50
2021/06/21 09:56:47;;;;;;;8.70;7.80;;;17.40;72.30;;;;;;5022448;27;95850;-51
2021/06/21 09:59:28;;;;;;;10.10;8.15;;;17.40;72.70;;;;;;5019111;27;95814;-50
2021/06/21 10:02:08;;;;;;;10.23;8.67;;;17.30;72.60;;;;;;5014890;27;103047;-50
2021/06/21 10:04:43;;;;;;;9.68;8.48;;;17.30;72.80;;;;;;5020570;27;96604;-49
2021/06/21 10:07:34;;;;;;;9.68;8.43;;;17.30;72.90;;;;;;5022521;27;95908;-51
2021/06/21 10:10:15;;;;;;;10.43;9.10;;;17.20;73.00;;;;;;5025690;27;95740;-49
2021/06/21 10:12:48;;;;;;;10.00;8.43;;;17.20;72.90;;;;;;5020096;27;95624;-53
2021/06/21 10:15:19;;;;;;;10.60;8.60;;;17.20;72.90;;;;;;5019136;27;98817;-48
2021/06/21 10:17:51;;;;;;;9.73;8.77;;;17.10;72.90;;;;;;5019629;27;95728;-49
2021/06/21 10:20:23;;;;;;;9.38;7.50;;;17.00;73.10;;;;;;5025968;27;95246;-47
2021/06/21 10:22:57;;;;;;;9.43;8.15;;;17.00;73.10;;;;;;5019039;27;101842;-51
2021/06/21 10:25:29;;;;;;;10.38;8.95;;;16.90;73.30;;;;;;5021834;27;96447;-49
2021/06/21 10:28:01;;;;;;;8.90;7.93;;;16.90;73.50;;;;;;5015485;27;95808;-51
2021/06/21 10:30:33;;;;;;;9.77;8.77;;;16.80;73.50;;;;;;5014119;27;95748;-52
2021/06/21 10:33:05;;;;;;;10.02;8.55;;;16.70;73.60;;;;;;5017767;27;95677;-51
2021/06/21 10:35:36;;;;;;;7.80;6.72;;;16.70;73.70;;;;;;5014319;27;97409;-49
2021/06/21 10:38:09;;;;;;;9.98;7.90;;;16.60;73.80;;;;;;5019495;27;95873;-50
2021/06/21 10:41:01;;;;;;;9.63;8.23;;;16.60;74.00;;;;;;5022073;27;95977;-50
2021/06/21 10:43:48;;;;;;;9.13;7.90;;;16.50;74.10;;;;;;5016072;27;101675;-49
2021/06/21 10:46:23;;;;;;;10.35;8.55;;;16.40;74.20;;;;;;5014095;27;96020;-50
2021/06/21 10:49:02;;;;;;;11.25;7.95;;;16.40;74.30;;;;;;5018276;27;95323;-51
2021/06/21 10:51:42;;;;;;;8.98;8.07;;;16.30;74.30;;;;;;5023469;27;96414;-50
2021/06/21 10:54:26;;;;;;;10.93;8.32;;;16.30;74.30;;;;;;5018855;27;95734;-56
2021/06/21 10:56:59;;;;;;;11.95;8.15;;;16.40;74.10;;;;;;5022919;28;95875;-51
2021/06/21 10:59:29;;;;;;;11.45;8.15;;;16.30;74.10;;;;;;5010609;27;97225;-55
2021/06/21 11:02:00;;;;;;;9.65;8.38;;;16.30;74.20;;;;;;5020036;28;96099;-54
2021/06/21 11:04:35;;;;;;;9.57;8.45;;;16.20;74.20;;;;;;5023731;27;96693;-52
2021/06/21 11:07:12;;;;;;;10.80;8.57;;;16.20;74.40;;;;;;5021063;28;96673;-54
2021/06/21 11:09:50;;;;;;;10.00;8.88;;;16.20;74.40;;;;;;4995869;28;97980;-54
2021/06/21 11:12:26;;;;;;;9.27;7.53;;;16.20;74.30;;;;;;5011893;28;96186;-52
2021/06/21 11:15:12;;;;;;;9.63;8.63;;;16.20;74.30;;;;;;5022223;27;95889;-55
2021/06/21 11:17:53;;;;;;;10.30;8.77;;;16.20;74.30;;;;;;5021937;28;99235;-54
2021/06/21 11:20:29;;;;;;;8.85;8.02;;;16.20;74.00;;;;;;5021161;27;96307;-52
2021/06/21 11:23:02;;;;;;;11.23;9.18;;;16.20;73.80;;;;;;5021007;27;95895;-53
2021/06/21 11:25:43;;;;;;;11.25;8.80;;;16.20;73.70;;;;;;5019314;27;95690;-54
2021/06/21 11:28:42;;;;;;;12.57;9.77;;;16.20;73.50;;;;;;5018335;27;97099;-52
2021/06/21 11:31:31;;;;;;;9.80;8.25;;;16.10;73.20;;;;;;5011962;27;97879;-53
2021/06/21 11:34:06;;;;;;;11.88;9.35;;;16.10;73.20;;;;;;5021884;27;95836;-52
2021/06/21 11:36:49;;;;;;;12.32;10.05;;;16.10;73.10;;;;;;5017340;27;95867;-52
2021/06/21 11:39:24;;;;;;;10.65;8.82;;;16.00;73.20;;;;;;5016445;27;96009;-55
2021/06/21 11:42:04;;;;;;;13.00;10.32;;;16.00;73.60;;;;;;5018131;27;95939;-50
2021/06/21 11:44:40;;;;;;;15.20;10.85;;;15.90;74.10;;;;;;5018269;27;95880;-53
2021/06/21 11:47:41;;;;;;;11.82;10.18;;;15.80;74.50;;;;;;5011319;27;95367;-53
2021/06/21 11:50:15;;;;;;;12.93;11.02;;;15.80;74.40;;;;;;5018474;27;96719;-52
2021/06/21 11:52:49;;;;;;;16.80;12.57;;;15.80;74.00;;;;;;5020237;27;95955;-57
2021/06/21 11:55:22;;;;;;;14.30;11.80;;;15.80;73.70;;;;;;5019240;27;95654;-51
2021/06/21 11:57:57;;;;;;;17.42;12.98;;;15.70;73.50;;;;;;5020218;28;103158;-60
2021/06/21 12:00:34;;;;;;;15.85;12.98;;;15.80;73.80;;;;;;5019043;27;96188;-50
2021/06/21 12:03:10;;;;;;;14.75;12.65;;;15.80;73.40;;;;;;5022558;27;96982;-50
2021/06/21 12:05:53;;;;;;;14.23;12.73;;;15.80;73.40;;;;;;5020884;27;95693;-50
2021/06/21 12:08:24;;;;;;;14.80;12.38;;;16.00;73.30;;;;;;5019663;28;95961;-56
2021/06/21 12:10:55;;;;;;;15.32;11.98;;;16.00;73.30;;;;;;5016319;28;96699;-51
2021/06/21 12:13:27;;;;;;;14.23;11.45;;;16.10;73.20;;;;;;5016785;27;98127;-59
2021/06/21 12:15:58;;;;;;;12.23;10.93;;;16.10;72.80;;;;;;5017072;28;98672;-48
2021/06/21 12:18:30;;;;;;;13.10;10.70;;;16.20;72.60;;;;;;5000394;28;95479;-58
2021/06/21 12:21:00;;;;;;;14.00;11.65;;;16.20;72.50;;;;;;5022916;28;95853;-48
2021/06/21 12:23:32;;;;;;;14.00;11.20;;;16.20;72.40;;;;;;5002410;28;95801;-56
2021/06/21 12:26:06;;;;;;;13.90;11.80;;;16.20;72.30;;;;;;5022812;28;95514;-48
2021/06/21 12:28:37;;;;;;;14.63;12.30;;;16.30;72.00;;;;;;5019551;27;95696;-48
2021/06/21 12:31:07;;;;;;;15.40;11.85;;;16.30;71.70;;;;;;5017300;28;95885;-48
2021/06/21 12:33:42;;;;;;;14.35;11.70;;;16.30;71.70;;;;;;5020318;27;95949;-49
2021/06/21 12:36:19;;;;;;;13.65;11.05;;;16.30;71.70;;;;;;5023365;28;95723;-51
2021/06/21 12:38:53;;;;;;;12.75;11.32;;;16.30;71.30;;;;;;5017387;27;95668;-49
2021/06/21 12:41:31;;;;;;;13.25;11.48;;;16.40;71.40;;;;;;5023683;28;96385;-49
2021/06/21 12:44:09;;;;;;;13.50;11.63;;;16.40;71.40;;;;;;5018633;27;95935;-57
2021/06/21 12:46:47;;;;;;;12.55;10.55;;;16.30;70.90;;;;;;5015660;27;97241;-49
2021/06/21 12:49:25;;;;;;;13.55;11.73;;;16.40;71.00;;;;;;5023188;27;96023;-51
2021/06/21 12:51:57;;;;;;;13.98;10.05;;;16.40;70.90;;;;;;5024743;28;96700;-49
2021/06/21 12:54:28;;;;;;;13.48;10.98;;;16.30;70.60;;;;;;5002417;28;97295;-60
2021/06/21 12:56:58;;;;;;;12.18;9.95;;;16.40;70.60;;;;;;5007981;28;95749;-50
2021/06/21 12:59:32;;;;;;;13.10;11.35;;;16.40;70.30;;;;;;5023881;27;95237;-49
2021/06/21 13:02:05;;;;;;;12.98;10.30;;;16.40;70.10;;;;;;5021493;28;96950;-58
2021/06/21 13:04:36;;;;;;;12.75;11.38;;;16.40;70.10;;;;;;5022894;27;95383;-50
2021/06/21 13:07:10;;;;;;;13.32;11.15;;;16.40;69.80;;;;;;5027170;28;95823;-48
2021/06/21 13:09:54;;;;;;;14.20;11.45;;;16.40;69.70;;;;;;5025158;27;101739;-57
2021/06/21 13:12:26;;;;;;;12.43;11.13;;;16.40;69.70;;;;;;5026608;28;96221;-59
2021/06/21 13:15:23;;;;;;;13.98;10.73;;;16.40;69.40;;;;;;5024869;27;96632;-50
2021/06/21 13:17:55;;;;;;;14.60;11.35;;;16.40;69.50;;;;;;5023490;28;95302;-60
2021/06/21 13:20:28;;;;;;;12.50;11.02;;;16.40;69.40;;;;;;5021717;27;96056;-57
2021/06/21 13:23:00;;;;;;;12.10;10.88;;;16.40;68.90;;;;;;5026400;28;95902;-56
2021/06/21 13:25:35;;;;;;;14.38;11.82;;;16.40;69.30;;;;;;5023537;27;95638;-59